sensor_id;sensor_type;location;lat;lon;timestamp;pressure;altitude;pressure_sealevel;temperature;humidity
22440;BME280;11387;51.612;7.210;2023-05-20T00:01:47;101469.28;;;11.82;62.59
22440;BME280;11387;51.612;7.210;2023-05-20T00:04:15;101466.81;;;11.75;62.63
22440;BME280;11387;51.612;7.210;2023-05-20T00:06:44;101468.75;;;11.74;63.02
22440;BME280;11387;51.612;7.210;2023-05-20T00:09:12;101464.66;;;11.72;63.51
22440;BME280;11387;51.612;7.210;2023-05-20T00:11:41;101466.00;;;11.79;63.12
22440;BME280;11387;51.612;7.210;2023-05-20T00:14:09;101463.47;;;11.88;62.52
22440;BME280;11387;51.612;7.210;2023-05-20T00:16:39;101455.72;;;11.95;62.51
22440;BME280;11387;51.612;7.210;2023-05-20T00:19:07;101453.22;;;11.99;61.65
22440;BME280;11387;51.612;7.210;2023-05-20T00:21:36;101456.50;;;12.01;61.72
22440;BME280;11387;51.612;7.210;2023-05-20T00:24:04;101455.91;;;12.04;61.53
22440;BME280;11387;51.612;7.210;2023-05-20T00:26:33;101454.31;;;11.98;61.68
22440;BME280;11387;51.612;7.210;2023-05-20T00:29:01;101458.16;;;11.97;61.73
22440;BME280;11387;51.612;7.210;2023-05-20T00:31:30;101451.94;;;11.91;62.07
22440;BME280;11387;51.612;7.210;2023-05-20T00:33:59;101458.81;;;11.89;61.94
22440;BME280;11387;51.612;7.210;2023-05-20T00:36:28;101451.31;;;11.94;62.27
22440;BME280;11387;51.612;7.210;2023-05-20T00:38:57;101459.38;;;11.86;62.63
22440;BME280;11387;51.612;7.210;2023-05-20T00:41:26;101453.13;;;11.75;62.98
22440;BME280;11387;51.612;7.210;2023-05-20T00:43:54;101455.06;;;11.69;62.94
22440;BME280;11387;51.612;7.210;2023-05-20T00:46:23;101456.41;;;11.77;62.59
22440;BME280;11387;51.612;7.210;2023-05-20T00:48:52;101456.97;;;11.74;63.15
22440;BME280;11387;51.612;7.210;2023-05-20T00:51:22;101455.59;;;11.71;62.98
22440;BME280;11387;51.612;7.210;2023-05-20T00:53:50;101466.03;;;11.69;63.49
22440;BME280;11387;51.612;7.210;2023-05-20T00:56:19;101461.47;;;11.60;63.82
22440;BME280;11387;51.612;7.210;2023-05-20T00:58:49;101451.38;;;11.50;63.98
22440;BME280;11387;51.612;7.210;2023-05-20T01:01:18;101460.69;;;11.54;64.16
22440;BME280;11387;51.612;7.210;2023-05-20T01:03:46;101453.00;;;11.56;64.14
22440;BME280;11387;51.612;7.210;2023-05-20T01:06:15;101449.22;;;11.47;64.44
22440;BME280;11387;51.612;7.210;2023-05-20T01:08:44;101452.50;;;11.44;64.59
22440;BME280;11387;51.612;7.210;2023-05-20T01:11:13;101452.50;;;11.44;64.92
22440;BME280;11387;51.612;7.210;2023-05-20T01:13:44;101447.59;;;11.41;65.08
22440;BME280;11387;51.612;7.210;2023-05-20T01:16:14;101449.50;;;11.45;64.91
22440;BME280;11387;51.612;7.210;2023-05-20T01:18:45;101460.50;;;11.35;65.49
22440;BME280;11387;51.612;7.210;2023-05-20T01:21:14;101450.94;;;11.33;65.86
22440;BME280;11387;51.612;7.210;2023-05-20T01:23:45;101446.53;;;11.32;65.90
22440;BME280;11387;51.612;7.210;2023-05-20T01:26:14;101452.66;;;11.24;65.86
22440;BME280;11387;51.612;7.210;2023-05-20T01:28:43;101451.28;;;11.21;66.94
22440;BME280;11387;51.612;7.210;2023-05-20T01:31:13;101452.94;;;11.17;66.68
22440;BME280;11387;51.612;7.210;2023-05-20T01:33:42;101449.41;;;11.11;67.24
22440;BME280;11387;51.612;7.210;2023-05-20T01:36:12;101449.19;;;11.03;67.45
22440;BME280;11387;51.612;7.210;2023-05-20T01:38:40;101441.78;;;11.03;67.75
22440;BME280;11387;51.612;7.210;2023-05-20T01:41:11;101448.88;;;11.09;67.91
22440;BME280;11387;51.612;7.210;2023-05-20T01:43:39;101444.31;;;10.95;68.21
22440;BME280;11387;51.612;7.210;2023-05-20T01:46:08;101442.94;;;10.97;68.37
22440;BME280;11387;51.612;7.210;2023-05-20T01:48:37;101441.31;;;10.91;68.67
22440;BME280;11387;51.612;7.210;2023-05-20T01:51:05;101440.25;;;10.82;69.02
22440;BME280;11387;51.612;7.210;2023-05-20T01:53:35;101435.59;;;10.83;69.01
22440;BME280;11387;51.612;7.210;2023-05-20T01:56:04;101433.09;;;10.91;69.23
22440;BME280;11387;51.612;7.210;2023-05-20T01:58:34;101436.91;;;10.95;69.18
22440;BME280;11387;51.612;7.210;2023-05-20T02:01:02;101421.88;;;10.93;69.41
22440;BME280;11387;51.612;7.210;2023-05-20T02:03:30;101422.16;;;10.91;69.27
22440;BME280;11387;51.612;7.210;2023-05-20T02:05:59;101431.47;;;10.90;69.30
22440;BME280;11387;51.612;7.210;2023-05-20T02:08:36;101430.28;;;11.06;68.98
22440;BME280;11387;51.612;7.210;2023-05-20T02:11:05;101435.00;;;10.96;69.38
22440;BME280;11387;51.612;7.210;2023-05-20T02:13:34;101435.59;;;10.83;69.83
22440;BME280;11387;51.612;7.210;2023-05-20T02:16:03;101446.84;;;10.76;70.77
22440;BME280;11387;51.612;7.210;2023-05-20T02:18:31;101433.13;;;10.81;70.55
22440;BME280;11387;51.612;7.210;2023-05-20T02:21:01;101429.88;;;10.74;70.75
22440;BME280;11387;51.612;7.210;2023-05-20T02:23:30;101440.31;;;10.67;71.13
22440;BME280;11387;51.612;7.210;2023-05-20T02:25:58;101439.78;;;10.70;71.38
22440;BME280;11387;51.612;7.210;2023-05-20T02:28:27;101432.66;;;10.64;71.60
22440;BME280;11387;51.612;7.210;2023-05-20T02:30:56;101446.63;;;10.62;71.71
22440;BME280;11387;51.612;7.210;2023-05-20T02:33:25;101445.25;;;10.65;72.04
22440;BME280;11387;51.612;7.210;2023-05-20T02:35:55;101446.63;;;10.62;72.48
22440;BME280;11387;51.612;7.210;2023-05-20T02:38:23;101446.88;;;10.66;72.10
22440;BME280;11387;51.612;7.210;2023-05-20T02:40:52;101434.31;;;10.65;72.52
22440;BME280;11387;51.612;7.210;2023-05-20T02:43:20;101441.97;;;10.58;72.71
22440;BME280;11387;51.612;7.210;2023-05-20T02:45:49;101432.13;;;10.67;72.82
22440;BME280;11387;51.612;7.210;2023-05-20T02:48:19;101432.66;;;10.69;72.74
22440;BME280;11387;51.612;7.210;2023-05-20T02:50:47;101426.88;;;10.70;72.89
22440;BME280;11387;51.612;7.210;2023-05-20T02:53:15;101433.16;;;10.71;73.08
22440;BME280;11387;51.612;7.210;2023-05-20T02:55:44;101421.16;;;10.67;73.16
22440;BME280;11387;51.612;7.210;2023-05-20T02:58:13;101431.28;;;10.66;73.30
22440;BME280;11387;51.612;7.210;2023-05-20T03:00:42;101436.50;;;10.63;73.73
22440;BME280;11387;51.612;7.210;2023-05-20T03:03:10;101431.88;;;10.53;73.96
22440;BME280;11387;51.612;7.210;2023-05-20T03:05:47;101425.03;;;10.45;74.51
22440;BME280;11387;51.612;7.210;2023-05-20T03:08:17;101422.84;;;10.58;74.55
22440;BME280;11387;51.612;7.210;2023-05-20T03:10:46;101425.03;;;10.45;74.85
22440;BME280;11387;51.612;7.210;2023-05-20T03:13:14;101431.06;;;10.48;74.82
22440;BME280;11387;51.612;7.210;2023-05-20T03:15:42;101432.72;;;10.43;75.23
22440;BME280;11387;51.612;7.210;2023-05-20T03:18:11;101424.22;;;10.45;75.38
22440;BME280;11387;51.612;7.210;2023-05-20T03:20:40;101428.31;;;10.48;75.48
22440;BME280;11387;51.612;7.210;2023-05-20T03:23:10;101436.59;;;10.37;75.70
22440;BME280;11387;51.612;7.210;2023-05-20T03:25:39;101426.47;;;10.33;76.09
22440;BME280;11387;51.612;7.210;2023-05-20T03:28:10;101430.00;;;10.38;76.22
22440;BME280;11387;51.612;7.210;2023-05-20T03:30:39;101433.84;;;10.37;76.25
22440;BME280;11387;51.612;7.210;2023-05-20T03:33:07;101431.88;;;10.43;76.03
22440;BME280;11387;51.612;7.210;2023-05-20T03:35:37;101434.38;;;10.39;76.39
22440;BME280;11387;51.612;7.210;2023-05-20T03:38:06;101426.47;;;10.33;76.46
22440;BME280;11387;51.612;7.210;2023-05-20T03:40:36;101421.81;;;10.33;76.59
22440;BME280;11387;51.612;7.210;2023-05-20T03:43:04;101417.72;;;10.31;76.72
22440;BME280;11387;51.612;7.210;2023-05-20T03:45:32;101417.41;;;10.42;76.74
22440;BME280;11387;51.612;7.210;2023-05-20T03:48:01;101414.41;;;10.39;76.56
22440;BME280;11387;51.612;7.210;2023-05-20T03:50:34;101416.84;;;10.40;76.65
22440;BME280;11387;51.612;7.210;2023-05-20T03:53:02;101409.19;;;10.48;76.48
22440;BME280;11387;51.612;7.210;2023-05-20T03:55:31;101415.75;;;10.46;76.57
22440;BME280;11387;51.612;7.210;2023-05-20T03:58:01;101424.47;;;10.59;76.46
22440;BME280;11387;51.612;7.210;2023-05-20T04:00:33;101422.31;;;10.51;76.48
22440;BME280;11387;51.612;7.210;2023-05-20T04:03:02;101409.72;;;10.44;76.73
22440;BME280;11387;51.612;7.210;2023-05-20T04:05:32;101417.88;;;10.65;76.16
22440;BME280;11387;51.612;7.210;2023-05-20T04:08:00;101411.59;;;10.64;76.01
22440;BME280;11387;51.612;7.210;2023-05-20T04:10:30;101406.59;;;10.82;76.22
22440;BME280;11387;51.612;7.210;2023-05-20T04:12:59;101417.50;;;10.92;75.14
22440;BME280;11387;51.612;7.210;2023-05-20T04:15:29;101408.47;;;10.86;75.27
22440;BME280;11387;51.612;7.210;2023-05-20T04:17:59;101409.81;;;10.94;74.97
22440;BME280;11387;51.612;7.210;2023-05-20T04:20:28;101411.19;;;10.96;74.44
22440;BME280;11387;51.612;7.210;2023-05-20T04:22:56;101415.84;;;10.91;74.99
22440;BME280;11387;51.612;7.210;2023-05-20T04:25:26;101412.72;;;11.12;74.62
22440;BME280;11387;51.612;7.210;2023-05-20T04:27:54;101417.69;;;11.05;74.34
22440;BME280;11387;51.612;7.210;2023-05-20T04:30:24;101423.09;;;11.16;74.17
22440;BME280;11387;51.612;7.210;2023-05-20T04:32:53;101419.25;;;11.17;74.07
22440;BME280;11387;51.612;7.210;2023-05-20T04:35:22;101425.00;;;11.20;73.87
22440;BME280;11387;51.612;7.210;2023-05-20T04:37:52;101416.47;;;11.27;73.56
22440;BME280;11387;51.612;7.210;2023-05-20T04:40:21;101412.06;;;11.31;73.32
22440;BME280;11387;51.612;7.210;2023-05-20T04:42:49;101419.13;;;11.37;72.84
22440;BME280;11387;51.612;7.210;2023-05-20T04:45:17;101419.59;;;11.49;72.31
22440;BME280;11387;51.612;7.210;2023-05-20T04:47:54;101431.59;;;11.58;72.46
22440;BME280;11387;51.612;7.210;2023-05-20T04:50:22;101429.41;;;11.60;72.33
22440;BME280;11387;51.612;7.210;2023-05-20T04:52:51;101420.56;;;11.63;72.18
22440;BME280;11387;51.612;7.210;2023-05-20T04:55:19;101424.38;;;11.67;72.39
22440;BME280;11387;51.612;7.210;2023-05-20T04:57:51;101424.84;;;11.85;71.94
22440;BME280;11387;51.612;7.210;2023-05-20T05:00:19;101416.56;;;11.90;71.48
22440;BME280;11387;51.612;7.210;2023-05-20T05:02:47;101420.41;;;11.89;71.01
22440;BME280;11387;51.612;7.210;2023-05-20T05:05:17;101419.25;;;11.95;70.75
22440;BME280;11387;51.612;7.210;2023-05-20T05:07:45;101421.28;;;12.13;70.44
22440;BME280;11387;51.612;7.210;2023-05-20T05:10:14;101411.94;;;12.14;70.32
22440;BME280;11387;51.612;7.210;2023-05-20T05:12:42;101416.47;;;12.24;69.91
22440;BME280;11387;51.612;7.210;2023-05-20T05:15:14;101410.25;;;12.18;69.94
22440;BME280;11387;51.612;7.210;2023-05-20T05:17:59;101411.00;;;12.24;69.81
22440;BME280;11387;51.612;7.210;2023-05-20T05:20:29;101411.81;;;12.24;69.27
22440;BME280;11387;51.612;7.210;2023-05-20T05:22:57;101415.00;;;12.36;68.79
22440;BME280;11387;51.612;7.210;2023-05-20T05:25:26;101420.97;;;12.43;69.08
22440;BME280;11387;51.612;7.210;2023-05-20T05:27:54;101415.72;;;12.47;69.05
22440;BME280;11387;51.612;7.210;2023-05-20T05:30:25;101414.41;;;12.39;69.21
22440;BME280;11387;51.612;7.210;2023-05-20T05:32:59;101415.81;;;12.61;69.38
22440;BME280;11387;51.612;7.210;2023-05-20T05:35:36;101419.66;;;12.60;68.64
22440;BME280;11387;51.612;7.210;2023-05-20T05:38:05;101414.63;;;12.67;68.09
22440;BME280;11387;51.612;7.210;2023-05-20T05:40:33;101417.28;;;12.77;68.09
22440;BME280;11387;51.612;7.210;2023-05-20T05:43:02;101407.16;;;12.72;68.01
22440;BME280;11387;51.612;7.210;2023-05-20T05:45:30;101406.34;;;12.72;68.20
22440;BME280;11387;51.612;7.210;2023-05-20T05:47:59;101412.94;;;12.71;68.50
22440;BME280;11387;51.612;7.210;2023-05-20T05:50:27;101407.84;;;12.83;68.46
22440;BME280;11387;51.612;7.210;2023-05-20T05:52:56;101409.88;;;12.96;68.73
22440;BME280;11387;51.612;7.210;2023-05-20T05:55:25;101403.13;;;13.07;67.76
22440;BME280;11387;51.612;7.210;2023-05-20T05:57:54;101394.81;;;13.12;67.54
22440;BME280;11387;51.612;7.210;2023-05-20T06:00:22;101393.28;;;13.44;66.73
22440;BME280;11387;51.612;7.210;2023-05-20T06:02:50;101393.50;;;13.29;66.28
22440;BME280;11387;51.612;7.210;2023-05-20T06:05:19;101401.31;;;13.40;66.43
22440;BME280;11387;51.612;7.210;2023-05-20T06:07:47;101400.53;;;13.54;66.31
22440;BME280;11387;51.612;7.210;2023-05-20T06:10:17;101404.59;;;13.56;65.91
22440;BME280;11387;51.612;7.210;2023-05-20T06:12:46;101399.56;;;13.63;65.64
22440;BME280;11387;51.612;7.210;2023-05-20T06:15:14;101395.53;;;13.74;65.34
22440;BME280;11387;51.612;7.210;2023-05-20T06:17:43;101394.28;;;13.80;64.36
22440;BME280;11387;51.612;7.210;2023-05-20T06:20:11;101388.28;;;13.78;64.57
22440;BME280;11387;51.612;7.210;2023-05-20T06:22:40;101377.44;;;14.01;64.41
22440;BME280;11387;51.612;7.210;2023-05-20T06:25:09;101384.81;;;14.19;63.75
22440;BME280;11387;51.612;7.210;2023-05-20T06:27:39;101386.91;;;13.95;64.31
22440;BME280;11387;51.612;7.210;2023-05-20T06:30:07;101390.19;;;13.97;64.35
22440;BME280;11387;51.612;7.210;2023-05-20T06:32:36;101386.41;;;14.06;64.07
22440;BME280;11387;51.612;7.210;2023-05-20T06:35:04;101385.22;;;14.40;63.26
22440;BME280;11387;51.612;7.210;2023-05-20T06:37:33;101376.69;;;14.41;62.95
22440;BME280;11387;51.612;7.210;2023-05-20T06:40:02;101381.06;;;14.56;62.17
22440;BME280;11387;51.612;7.210;2023-05-20T06:42:30;101376.78;;;14.50;62.30
22440;BME280;11387;51.612;7.210;2023-05-20T06:45:01;101369.50;;;14.81;61.83
22440;BME280;11387;51.612;7.210;2023-05-20T06:47:30;101368.09;;;14.84;61.35
22440;BME280;11387;51.612;7.210;2023-05-20T06:49:58;101361.28;;;15.04;60.92
22440;BME280;11387;51.612;7.210;2023-05-20T06:52:27;101371.13;;;14.96;60.63
22440;BME280;11387;51.612;7.210;2023-05-20T06:54:55;101380.28;;;15.05;60.83
22440;BME280;11387;51.612;7.210;2023-05-20T06:57:24;101368.13;;;15.06;60.66
22440;BME280;11387;51.612;7.210;2023-05-20T06:59:52;101372.38;;;14.90;60.45
22440;BME280;11387;51.612;7.210;2023-05-20T07:02:22;101366.59;;;15.00;60.43
22440;BME280;11387;51.612;7.210;2023-05-20T07:04:50;101366.97;;;14.85;60.88
22440;BME280;11387;51.612;7.210;2023-05-20T07:07:19;101369.53;;;14.68;61.88
22440;BME280;11387;51.612;7.210;2023-05-20T07:09:47;101378.84;;;14.58;61.85
22440;BME280;11387;51.612;7.210;2023-05-20T07:12:15;101368.91;;;14.71;61.59
22440;BME280;11387;51.612;7.210;2023-05-20T07:14:44;101368.53;;;15.36;59.80
22440;BME280;11387;51.612;7.210;2023-05-20T07:17:12;101372.91;;;15.14;60.54
22440;BME280;11387;51.612;7.210;2023-05-20T07:19:42;101368.53;;;15.36;59.50
22440;BME280;11387;51.612;7.210;2023-05-20T07:22:13;101376.59;;;15.10;60.49
22440;BME280;11387;51.612;7.210;2023-05-20T07:24:45;101375.16;;;15.12;61.31
22440;BME280;11387;51.612;7.210;2023-05-20T07:27:24;101372.78;;;15.20;60.61
22440;BME280;11387;51.612;7.210;2023-05-20T07:29:53;101371.50;;;15.03;61.22
22440;BME280;11387;51.612;7.210;2023-05-20T07:32:21;101375.22;;;14.71;62.27
22440;BME280;11387;51.612;7.210;2023-05-20T07:34:51;101365.03;;;14.72;62.23
22440;BME280;11387;51.612;7.210;2023-05-20T07:37:19;101369.72;;;14.85;61.98
22440;BME280;11387;51.612;7.210;2023-05-20T07:40:04;101363.13;;;15.08;60.73
22440;BME280;11387;51.612;7.210;2023-05-20T07:42:44;101362.56;;;14.84;61.11
22440;BME280;11387;51.612;7.210;2023-05-20T07:45:13;101351.94;;;14.91;61.45
22440;BME280;11387;51.612;7.210;2023-05-20T07:47:48;101348.50;;;14.72;62.09
22440;BME280;11387;51.612;7.210;2023-05-20T07:50:20;101357.28;;;14.74;62.18
22440;BME280;11387;51.612;7.210;2023-05-20T07:52:49;101353.38;;;14.89;61.47
22440;BME280;11387;51.612;7.210;2023-05-20T07:55:23;101352.31;;;14.98;61.40
22440;BME280;11387;51.612;7.210;2023-05-20T07:57:52;101358.69;;;15.21;61.15
22440;BME280;11387;51.612;7.210;2023-05-20T08:00:24;101360.53;;;15.26;60.33
22440;BME280;11387;51.612;7.210;2023-05-20T08:02:52;101359.34;;;15.40;60.06
22440;BME280;11387;51.612;7.210;2023-05-20T08:05:23;101357.25;;;15.46;60.60
22440;BME280;11387;51.612;7.210;2023-05-20T08:07:54;101370.53;;;15.58;59.41
22440;BME280;11387;51.612;7.210;2023-05-20T08:10:23;101358.47;;;15.54;59.55
22440;BME280;11387;51.612;7.210;2023-05-20T08:12:55;101354.44;;;15.37;60.26
22440;BME280;11387;51.612;7.210;2023-05-20T08:15:27;101356.88;;;15.39;60.40
22440;BME280;11387;51.612;7.210;2023-05-20T08:17:57;101359.28;;;15.76;59.27
22440;BME280;11387;51.612;7.210;2023-05-20T08:20:31;101350.69;;;16.48;57.13
22440;BME280;11387;51.612;7.210;2023-05-20T08:23:05;101347.38;;;16.77;56.29
22440;BME280;11387;51.612;7.210;2023-05-20T08:25:34;101358.78;;;17.02;54.84
22440;BME280;11387;51.612;7.210;2023-05-20T08:28:05;101347.72;;;17.36;54.19
22440;BME280;11387;51.612;7.210;2023-05-20T08:30:37;101354.88;;;16.37;56.50
22440;BME280;11387;51.612;7.210;2023-05-20T08:33:05;101358.97;;;16.09;57.51
22440;BME280;11387;51.612;7.210;2023-05-20T08:35:39;101352.00;;;16.60;57.21
22440;BME280;11387;51.612;7.210;2023-05-20T08:38:08;101352.81;;;16.60;57.18
22440;BME280;11387;51.612;7.210;2023-05-20T08:40:39;101338.41;;;16.89;56.34
22440;BME280;11387;51.612;7.210;2023-05-20T08:43:12;101350.97;;;16.95;56.15
22440;BME280;11387;51.612;7.210;2023-05-20T08:45:47;101357.69;;;16.63;56.72
22440;BME280;11387;51.612;7.210;2023-05-20T08:48:21;101341.56;;;16.39;57.14
22440;BME280;11387;51.612;7.210;2023-05-20T08:50:58;101344.81;;;16.41;57.40
22440;BME280;11387;51.612;7.210;2023-05-20T08:53:29;101344.75;;;16.72;56.27
22440;BME280;11387;51.612;7.210;2023-05-20T08:56:14;101339.66;;;17.87;54.01
22440;BME280;11387;51.612;7.210;2023-05-20T08:58:55;101345.25;;;17.69;53.29
22440;BME280;11387;51.612;7.210;2023-05-20T09:01:32;101347.88;;;17.05;55.66
22440;BME280;11387;51.612;7.210;2023-05-20T09:04:07;101361.06;;;16.51;57.24
22440;BME280;11387;51.612;7.210;2023-05-20T09:06:45;101355.16;;;16.84;56.50
22440;BME280;11387;51.612;7.210;2023-05-20T09:09:14;101346.47;;;16.60;57.62
22440;BME280;11387;51.612;7.210;2023-05-20T09:11:43;101344.16;;;16.44;58.46
22440;BME280;11387;51.612;7.210;2023-05-20T09:14:12;101348.47;;;16.68;57.65
22440;BME280;11387;51.612;7.210;2023-05-20T09:16:41;101345.75;;;16.76;57.39
22440;BME280;11387;51.612;7.210;2023-05-20T09:19:10;101347.06;;;16.39;58.74
22440;BME280;11387;51.612;7.210;2023-05-20T09:21:42;101342.00;;;16.33;58.94
22440;BME280;11387;51.612;7.210;2023-05-20T09:24:15;101346.06;;;15.65;60.20
22440;BME280;11387;51.612;7.210;2023-05-20T09:26:47;101345.75;;;15.97;58.79
22440;BME280;11387;51.612;7.210;2023-05-20T09:29:16;101345.50;;;15.76;59.96
22440;BME280;11387;51.612;7.210;2023-05-20T09:31:46;101342.47;;;15.87;60.08
22440;BME280;11387;51.612;7.210;2023-05-20T09:34:15;101344.03;;;16.10;59.17
22440;BME280;11387;51.612;7.210;2023-05-20T09:36:44;101344.78;;;16.33;59.03
22440;BME280;11387;51.612;7.210;2023-05-20T09:39:21;101340.22;;;16.94;56.87
22440;BME280;11387;51.612;7.210;2023-05-20T09:41:54;101343.78;;;17.55;55.23
22440;BME280;11387;51.612;7.210;2023-05-20T09:44:22;101337.09;;;17.64;54.95
22440;BME280;11387;51.612;7.210;2023-05-20T09:46:51;101340.81;;;17.77;54.53
22440;BME280;11387;51.612;7.210;2023-05-20T09:49:20;101341.00;;;17.46;55.26
22440;BME280;11387;51.612;7.210;2023-05-20T09:51:49;101335.13;;;17.73;54.54
22440;BME280;11387;51.612;7.210;2023-05-20T09:54:20;101345.88;;;17.83;54.06
22440;BME280;11387;51.612;7.210;2023-05-20T09:56:50;101332.41;;;17.65;54.25
22440;BME280;11387;51.612;7.210;2023-05-20T09:59:20;101339.09;;;17.38;55.61
22440;BME280;11387;51.612;7.210;2023-05-20T10:01:52;101333.47;;;17.90;54.59
22440;BME280;11387;51.612;7.210;2023-05-20T10:04:20;101330.44;;;18.12;53.64
22440;BME280;11387;51.612;7.210;2023-05-20T10:09:48;101327.53;;;17.36;55.25
22440;BME280;11387;51.612;7.210;2023-05-20T10:12:20;101325.59;;;17.36;55.31
22440;BME280;11387;51.612;7.210;2023-05-20T10:14:55;101326.00;;;17.81;54.36
22440;BME280;11387;51.612;7.210;2023-05-20T10:17:28;101325.91;;;17.35;55.61
22440;BME280;11387;51.612;7.210;2023-05-20T10:20:01;101317.59;;;18.07;54.67
22440;BME280;11387;51.612;7.210;2023-05-20T10:22:33;101319.13;;;18.34;54.44
22440;BME280;11387;51.612;7.210;2023-05-20T10:25:05;101312.91;;;18.67;53.43
22440;BME280;11387;51.612;7.210;2023-05-20T10:27:41;101315.09;;;18.23;53.86
22440;BME280;11387;51.612;7.210;2023-05-20T10:30:16;101297.97;;;18.30;53.83
22440;BME280;11387;51.612;7.210;2023-05-20T10:32:48;101292.34;;;18.68;52.94
22440;BME280;11387;51.612;7.210;2023-05-20T10:35:22;101295.16;;;18.59;52.65
22440;BME280;11387;51.612;7.210;2023-05-20T10:37:53;101297.56;;;18.40;53.49
22440;BME280;11387;51.612;7.210;2023-05-20T10:40:24;101281.97;;;18.65;52.94
22440;BME280;11387;51.612;7.210;2023-05-20T10:42:53;101284.97;;;18.72;52.32
22440;BME280;11387;51.612;7.210;2023-05-20T10:45:31;101277.75;;;18.79;52.30
22440;BME280;11387;51.612;7.210;2023-05-20T10:48:03;101267.84;;;18.49;53.28
22440;BME280;11387;51.612;7.210;2023-05-20T10:50:32;101271.69;;;18.86;52.86
22440;BME280;11387;51.612;7.210;2023-05-20T10:53:03;101268.25;;;19.22;51.61
22440;BME280;11387;51.612;7.210;2023-05-20T10:55:37;101271.66;;;19.73;50.74
22440;BME280;11387;51.612;7.210;2023-05-20T10:58:06;101269.22;;;19.71;50.04
22440;BME280;11387;51.612;7.210;2023-05-20T11:00:35;101257.69;;;19.81;50.16
22440;BME280;11387;51.612;7.210;2023-05-20T11:03:04;101256.25;;;20.48;49.17
22440;BME280;11387;51.612;7.210;2023-05-20T11:05:38;101251.63;;;21.33;47.94
22440;BME280;11387;51.612;7.210;2023-05-20T11:08:08;101251.38;;;20.58;48.12
22440;BME280;11387;51.612;7.210;2023-05-20T11:10:56;101251.91;;;20.47;48.47
22440;BME280;11387;51.612;7.210;2023-05-20T11:13:24;101250.16;;;20.83;48.10
22440;BME280;11387;51.612;7.210;2023-05-20T11:15:53;101245.13;;;21.29;47.00
22440;BME280;11387;51.612;7.210;2023-05-20T11:18:22;101248.44;;;20.14;50.03
22440;BME280;11387;51.612;7.210;2023-05-20T11:20:50;101255.34;;;19.71;51.02
22440;BME280;11387;51.612;7.210;2023-05-20T11:23:20;101247.09;;;19.30;51.64
22440;BME280;11387;51.612;7.210;2023-05-20T11:25:49;101239.72;;;19.22;52.52
22440;BME280;11387;51.612;7.210;2023-05-20T11:28:19;101245.63;;;19.90;51.07
22440;BME280;11387;51.612;7.210;2023-05-20T11:30:47;101238.56;;;19.56;51.48
22440;BME280;11387;51.612;7.210;2023-05-20T11:33:21;101237.31;;;20.14;50.16
22440;BME280;11387;51.612;7.210;2023-05-20T11:35:53;101240.03;;;21.03;48.54
22440;BME280;11387;51.612;7.210;2023-05-20T11:38:21;101248.88;;;21.64;46.32
22440;BME280;11387;51.612;7.210;2023-05-20T11:40:50;101233.84;;;21.84;45.75
22440;BME280;11387;51.612;7.210;2023-05-20T11:43:21;101236.38;;;21.90;45.49
22440;BME280;11387;51.612;7.210;2023-05-20T11:45:52;101229.19;;;21.57;46.60
22440;BME280;11387;51.612;7.210;2023-05-20T11:48:20;101229.13;;;21.69;46.31
22440;BME280;11387;51.612;7.210;2023-05-20T11:50:49;101227.22;;;21.58;46.57
22440;BME280;11387;51.612;7.210;2023-05-20T11:53:18;101224.03;;;21.28;46.88
22440;BME280;11387;51.612;7.210;2023-05-20T11:55:48;101221.50;;;20.55;48.62
22440;BME280;11387;51.612;7.210;2023-05-20T11:58:17;101219.78;;;20.90;47.92
22440;BME280;11387;51.612;7.210;2023-05-20T12:00:47;101206.06;;;21.25;46.54
22440;BME280;11387;51.612;7.210;2023-05-20T12:03:23;101217.00;;;20.90;46.99
22440;BME280;11387;51.612;7.210;2023-05-20T12:05:52;101206.88;;;21.41;45.02
22440;BME280;11387;51.612;7.210;2023-05-20T12:08:20;101202.06;;;21.10;45.67
22440;BME280;11387;51.612;7.210;2023-05-20T12:10:49;101187.44;;;22.24;42.87
22440;BME280;11387;51.612;7.210;2023-05-20T12:13:17;101193.94;;;23.05;41.85
22440;BME280;11387;51.612;7.210;2023-05-20T12:15:47;101189.28;;;22.00;43.97
22440;BME280;11387;51.612;7.210;2023-05-20T12:18:15;101186.00;;;23.98;39.75
22440;BME280;11387;51.612;7.210;2023-05-20T12:20:44;101177.56;;;23.68;40.51
22440;BME280;11387;51.612;7.210;2023-05-20T12:23:12;101189.00;;;24.35;39.55
22440;BME280;11387;51.612;7.210;2023-05-20T12:25:40;101185.78;;;23.15;40.26
22440;BME280;11387;51.612;7.210;2023-05-20T12:28:09;101186.25;;;22.79;42.29
22440;BME280;11387;51.612;7.210;2023-05-20T12:30:37;101181.16;;;23.04;41.36
22440;BME280;11387;51.612;7.210;2023-05-20T12:33:09;101184.72;;;23.24;40.45
22440;BME280;11387;51.612;7.210;2023-05-20T12:35:40;101179.28;;;23.76;39.24
22440;BME280;11387;51.612;7.210;2023-05-20T12:38:14;101175.22;;;22.47;41.24
22440;BME280;11387;51.612;7.210;2023-05-20T12:40:56;101182.13;;;22.54;41.82
22440;BME280;11387;51.612;7.210;2023-05-20T12:43:32;101174.22;;;23.59;39.63
22440;BME280;11387;51.612;7.210;2023-05-20T12:46:14;101177.22;;;23.28;41.56
22440;BME280;11387;51.612;7.210;2023-05-20T12:48:49;101170.91;;;24.03;38.93
22440;BME280;11387;51.612;7.210;2023-05-20T12:51:22;101175.78;;;24.66;37.83
22440;BME280;11387;51.612;7.210;2023-05-20T12:53:51;101172.09;;;24.02;39.60
22440;BME280;11387;51.612;7.210;2023-05-20T12:56:19;101173.81;;;24.36;39.85
22440;BME280;11387;51.612;7.210;2023-05-20T12:58:48;101161.75;;;22.88;40.47
22440;BME280;11387;51.612;7.210;2023-05-20T13:01:16;101160.56;;;22.89;41.37
22440;BME280;11387;51.612;7.210;2023-05-20T13:03:45;101170.34;;;22.79;41.55
22440;BME280;11387;51.612;7.210;2023-05-20T13:06:15;101162.00;;;22.25;42.69
22440;BME280;11387;51.612;7.210;2023-05-20T13:08:43;101170.25;;;21.55;43.73